首页
METAR-TAF:

METAR-TAF

机场 :

Cut Bank, 蒙大拿州, 美国

纬度: 48-36-30N, 经度: 112-22-34W, 海拔: 1175米

当前天气观测

该预报发布于48分钟前的23:56 UTC
风速8节,风向西转西北,有时为18节阵风
温度 31°C
湿度 19%
气压 1015 hPa
能見度: 16.1公里
散云层高于11000英尺

METAR: KCTB 152356Z AUTO 29008G18KT 10SM SCT110 31/05 A2996 RMK AO2 SLP114 T03060050 10328 20300 53000

时间: 18:44 (00:44 UTC)

预报

该预报发布于1小时和1分钟前的23:43 UTC
预报有效从16日的 00点(UTC)到 16日的 24点(UTC)
风速9节,风向西,有时为16节阵风
能見度: 10公里
散云层高于15000英尺
从 16日的 0200点(UTC)
风速9节,风向
能見度: 10公里
少量云层高于15000英尺
从 16日的 0500点(UTC)
风速6节,风向多变
能見度: 10公里
少量云层高于15000英尺

TAF: KCTB 152343Z 1600/1624 28009G16KT P6SM SCT150 FM160200 36009KT P6SM FEW150 FM160500 VRB06KT P6SM FEW150

超过4000个机场的气象观测和天气预报(METAR&TAF报告)。

可查询的气象台以黄色和红色小点在地图上表示。

将鼠标移到小点上方,可查看气象台名称。

然后点击查看天气观测和预报。

如需切换地图:点击带黑十字的绿色按钮放大地图;点击带横线的绿色按钮缩小地图;或者点击绿色箭头查看邻近地区的地图。


METAR-TAF: